Station Historical Data
Daily Summary for December 4, 2017 Units:  English    Metric   Both
« Previous Day
Next Day »
Daily Weekly Monthly Yearly Custom
  High: Low: Average:
Temperature: 52.5 °F 28.7 °F 42.3 °F
Dew Point: 36.8 °F 26.7 °F 32 °F
Humidity: 93% 49% 70%
Wind Speed: 11.0mph 0.0mph 2.2mph
Wind Gust: 17.0mph - -
Wind- - SSE
Pressure: 30.33 in 29.91 in -
Precipitation: 0.00 in    
Historical Graphs
 
 
Tabular Data for December 4, 2017
Time Temperature Dew Point Pressure Wind Wind Speed Wind Gust Humidity Rainfall Rate (Hourly)
00:04 30.0 °F 27.7 °F 30.28 in Calm     91% 0.00 in
00:09 29.9 °F 27.6 °F 30.28 in Calm     91% 0.00 in
00:14 29.8 °F 27.5 °F 30.29 in Calm     91% 0.00 in
00:19 29.7 °F 27.4 °F 30.29 in Calm     91% 0.00 in
00:24 30.0 °F 27.7 °F 30.29 in Calm     91% 0.00 in
00:29 30.0 °F 27.7 °F 30.29 in Calm     91% 0.00 in
00:39 30.3 °F 28.0 °F 30.29 in Calm     91% 0.00 in
00:44 30.8 °F 28.5 °F 30.28 in Calm     91% 0.00 in
00:49 30.6 °F 28.3 °F 30.28 in Calm     91% 0.00 in
00:54 30.4 °F 28.1 °F 30.28 in Calm     91% 0.00 in
00:59 30.1 °F 27.8 °F 30.28 in Calm     91% 0.00 in
01:04 29.9 °F 27.6 °F 30.28 in Calm     91% 0.00 in
01:09 29.7 °F 27.4 °F 30.28 in Calm     91% 0.00 in
01:14 29.6 °F 27.3 °F 30.28 in Calm     91% 0.00 in
01:19 29.2 °F 26.9 °F 30.28 in Calm     91% 0.00 in
01:24 29.3 °F 27.0 °F 30.28 in Calm     91% 0.00 in
01:29 29.2 °F 26.9 °F 30.28 in Calm     91% 0.00 in
01:34 29.1 °F 26.8 °F 30.28 in Calm     91% 0.00 in
01:39 29.0 °F 26.7 °F 30.28 in Calm     91% 0.00 in
01:44 29.0 °F 27.0 °F 30.28 in Calm     92% 0.00 in
01:49 29.3 °F 27.3 °F 30.28 in Calm     92% 0.00 in
01:54 29.6 °F 27.6 °F 30.28 in Calm     92% 0.00 in
01:59 29.7 °F 27.4 °F 30.28 in Calm     91% 0.00 in
02:04 29.7 °F 27.7 °F 30.28 in Calm     92% 0.00 in
02:09 29.8 °F 27.8 °F 30.28 in Calm     92% 0.00 in
02:14 30.0 °F 28.0 °F 30.28 in Calm     92% 0.00 in
02:19 29.9 °F 27.9 °F 30.28 in Calm     92% 0.00 in
02:24 29.9 °F 27.9 °F 30.28 in Calm     92% 0.00 in
02:29 29.9 °F 27.9 °F 30.29 in Calm     92% 0.00 in
02:34 29.9 °F 27.9 °F 30.29 in Calm     92% 0.00 in
02:39 29.7 °F 27.7 °F 30.29 in Calm     92% 0.00 in
02:44 29.3 °F 27.0 °F 30.30 in Calm     91% 0.00 in
02:49 29.0 °F 27.0 °F 30.30 in Calm     92% 0.00 in
02:54 29.0 °F 27.0 °F 30.30 in Calm     92% 0.00 in
02:59 29.2 °F 27.2 °F 30.30 in Calm     92% 0.00 in
03:04 29.7 °F 27.7 °F 30.30 in Calm     92% 0.00 in
03:09 30.1 °F 28.1 °F 30.30 in Calm     92% 0.00 in
03:14 30.0 °F 28.0 °F 30.30 in Calm     92% 0.00 in
03:19 29.8 °F 27.8 °F 30.29 in Calm     92% 0.00 in
03:24 30.0 °F 28.0 °F 30.29 in Calm     92% 0.00 in
03:29 30.3 °F 28.3 °F 30.29 in Calm     92% 0.00 in
03:34 30.1 °F 28.1 °F 30.29 in Calm     92% 0.00 in
03:39 29.7 °F 27.7 °F 30.30 in Calm     92% 0.00 in
03:44 29.3 °F 27.3 °F 30.30 in Calm     92% 0.00 in
03:49 29.1 °F 27.1 °F 30.30 in Calm     92% 0.00 in
03:54 29.1 °F 27.1 °F 30.30 in Calm     92% 0.00 in
03:59 28.8 °F 26.8 °F 30.30 in Calm     92% 0.00 in
04:04 28.7 °F 26.7 °F 30.30 in Calm     92% 0.00 in
04:09 28.8 °F 26.8 °F 30.30 in Calm     92% 0.00 in
04:14 29.1 °F 27.1 °F 30.30 in Calm     92% 0.00 in
04:19 29.1 °F 27.1 °F 30.31 in Calm     92% 0.00 in
04:24 28.8 °F 26.8 °F 30.31 in Calm     92% 0.00 in
04:29 28.7 °F 26.7 °F 30.31 in Calm     92% 0.00 in
04:34 29.0 °F 27.0 °F 30.31 in Calm     92% 0.00 in
04:39 29.3 °F 27.3 °F 30.31 in Calm     92% 0.00 in
04:44 29.3 °F 27.3 °F 30.31 in Calm     92% 0.00 in
04:49 29.2 °F 27.2 °F 30.31 in Calm     92% 0.00 in
04:54 29.2 °F 27.2 °F 30.31 in Calm     92% 0.00 in
04:59 29.5 °F 27.5 °F 30.31 in Calm     92% 0.00 in
05:04 29.6 °F 27.8 °F 30.31 in Calm     93% 0.00 in
05:09 29.7 °F 27.7 °F 30.31 in Calm     92% 0.00 in
05:14 29.7 °F 27.7 °F 30.30 in Calm     92% 0.00 in
05:19 29.9 °F 28.1 °F 30.30 in Calm     93% 0.00 in
05:24 29.9 °F 27.9 °F 30.30 in Calm     92% 0.00 in
05:29 30.0 °F 28.0 °F 30.31 in Calm     92% 0.00 in
05:34 29.7 °F 27.7 °F 30.31 in Calm     92% 0.00 in
05:39 29.9 °F 28.1 °F 30.31 in Calm     93% 0.00 in
05:49 30.4 °F 28.6 °F 30.30 in Calm     93% 0.00 in
05:54 30.5 °F 28.7 °F 30.30 in Calm     93% 0.00 in
05:59 30.7 °F 28.9 °F 30.30 in Calm     93% 0.00 in
06:04 30.8 °F 29.0 °F 30.30 in Calm     93% 0.00 in
06:09 30.7 °F 28.7 °F 30.30 in Calm     92% 0.00 in
06:14 30.8 °F 29.0 °F 30.31 in Calm     93% 0.00 in
06:19 30.9 °F 28.9 °F 30.31 in Calm     92% 0.00 in
06:24 30.7 °F 28.7 °F 30.31 in Calm     92% 0.00 in
06:29 30.5 °F 28.5 °F 30.32 in Calm     92% 0.00 in
06:34 30.7 °F 28.9 °F 30.32 in Calm     93% 0.00 in
06:39 31.0 °F 29.2 °F 30.32 in Calm     93% 0.00 in
06:44 31.0 °F 29.2 °F 30.32 in Calm     93% 0.00 in
06:49 31.1 °F 29.3 °F 30.32 in Calm     93% 0.00 in
06:54 31.2 °F 29.4 °F 30.33 in Calm     93% 0.00 in
06:59 31.0 °F 28.9 °F 30.33 in Calm     92% 0.00 in
07:04 31.1 °F 29.3 °F 30.33 in Calm     93% 0.00 in
07:09 31.5 °F 29.7 °F 30.32 in Calm     93% 0.00 in
07:14 31.7 °F 29.9 °F 30.32 in Calm     93% 0.00 in
07:19 31.8 °F 30.0 °F 30.32 in Calm     93% 0.00 in
07:24 31.9 °F 30.1 °F 30.31 in Calm     93% 0.00 in
07:29 32.0 °F 30.2 °F 30.32 in Calm     93% 0.00 in
07:34 32.0 °F 30.2 °F 30.32 in Calm     93% 0.00 in
07:39 32.1 °F 30.3 °F 30.31 in Calm     93% 0.00 in
07:49 32.3 °F 30.5 °F 30.31 in Calm   2.0 mph 93% 0.00 in
07:54 32.4 °F 30.6 °F 30.31 in ESE 1.0 mph 3.0 mph 93% 0.00 in
07:59 32.6 °F 30.5 °F 30.31 in ESE 1.0 mph 3.0 mph 92% 0.00 in
08:04 32.7 °F 30.9 °F 30.31 in Calm   4.0 mph 93% 0.00 in
08:09 32.9 °F 31.1 °F 30.31 in Calm     93% 0.00 in
08:14 33.1 °F 31.0 °F 30.32 in Calm     92% 0.00 in
08:19 33.3 °F 31.2 °F 30.31 in ESE 1.0 mph 3.0 mph 92% 0.00 in
08:24 33.5 °F 31.4 °F 30.31 in Calm   2.0 mph 92% 0.00 in
08:29 33.6 °F 31.5 °F 30.31 in East 1.0 mph 3.0 mph 92% 0.00 in
08:34 33.8 °F 31.5 °F 30.31 in ESE 1.0 mph 4.0 mph 91% 0.00 in
08:39 34.0 °F 31.6 °F 30.31 in Calm   4.0 mph 91% 0.00 in
08:44 34.2 °F 31.8 °F 30.31 in Calm   3.0 mph 91% 0.00 in
08:49 34.4 °F 32.0 °F 30.31 in Calm     91% 0.00 in
08:54 34.7 °F 32.1 °F 30.31 in Calm   1.0 mph 90% 0.00 in
08:59 35.0 °F 32.4 °F 30.30 in Calm   2.0 mph 90% 0.00 in
09:04 35.3 °F 32.4 °F 30.30 in East 2.0 mph 3.0 mph 89% 0.00 in
09:09 35.5 °F 32.6 °F 30.30 in Calm   3.0 mph 89% 0.00 in
09:14 35.8 °F 32.6 °F 30.30 in Calm   3.0 mph 88% 0.00 in
09:19 36.2 °F 33.0 °F 30.30 in Calm   3.0 mph 88% 0.00 in
09:24 36.6 °F 33.1 °F 30.30 in SE 1.0 mph 4.0 mph 87% 0.00 in
09:29 36.9 °F 33.1 °F 30.30 in Calm   2.0 mph 86% 0.00 in
09:34 37.3 °F 33.2 °F 30.30 in Calm   3.0 mph 85% 0.00 in
09:39 37.7 °F 33.3 °F 30.30 in Calm   3.0 mph 84% 0.00 in
09:44 38.1 °F 33.4 °F 30.30 in Calm   2.0 mph 83% 0.00 in
09:49 38.5 °F 33.8 °F 30.30 in Calm   2.0 mph 83% 0.00 in
09:54 38.8 °F 33.8 °F 30.30 in SE 1.0 mph 4.0 mph 82% 0.00 in
09:59 39.1 °F 34.1 °F 30.30 in SE 1.0 mph 4.0 mph 82% 0.00 in
10:04 39.3 °F 33.6 °F 30.29 in SSE 1.0 mph 4.0 mph 80% 0.00 in
10:09 39.7 °F 34.0 °F 30.29 in Calm   3.0 mph 80% 0.00 in
10:14 40.1 °F 34.1 °F 30.29 in SE 2.0 mph 3.0 mph 79% 0.00 in
10:19 40.4 °F 34.1 °F 30.28 in Calm   4.0 mph 78% 0.00 in
10:24 40.9 °F 34.6 °F 30.28 in SE 1.0 mph 3.0 mph 78% 0.00 in
10:29 41.2 °F 34.5 °F 30.28 in Calm   2.0 mph 77% 0.00 in
10:34 41.6 °F 34.9 °F 30.28 in SE 1.0 mph 3.0 mph 77% 0.00 in
10:39 42.0 °F 35.0 °F 30.28 in Calm   3.0 mph 76% 0.00 in
10:44 42.3 °F 34.6 °F 30.28 in Calm   2.0 mph 74% 0.00 in
10:49 42.7 °F 35.0 °F 30.27 in Calm     74% 0.00 in
10:54 43.0 °F 35.3 °F 30.27 in Calm     74% 0.00 in
10:59 43.4 °F 35.7 °F 30.27 in Calm   4.0 mph 74% 0.00 in
11:04 44.1 °F 36.0 °F 30.26 in Calm   4.0 mph 73% 0.00 in
11:09 44.9 °F 36.4 °F 30.25 in SE 1.0 mph 5.0 mph 72% 0.00 in
11:14 45.6 °F 36.7 °F 30.25 in SE 1.0 mph 5.0 mph 71% 0.00 in
11:19 45.9 °F 36.7 °F 30.25 in ESE 2.0 mph 4.0 mph 70% 0.00 in
11:24 46.2 °F 36.2 °F 30.24 in SSE 1.0 mph 5.0 mph 68% 0.00 in
11:29 47.2 °F 36.8 °F 30.24 in SSE 1.0 mph 4.0 mph 67% 0.00 in
11:34 47.7 °F 36.5 °F 30.23 in SSE 2.0 mph 5.0 mph 65% 0.00 in
11:39 48.1 °F 36.1 °F 30.23 in SE 2.0 mph 8.0 mph 63% 0.00 in
11:44 48.1 °F 35.7 °F 30.22 in SSE 3.0 mph 8.0 mph 62% 0.00 in
11:49 48.0 °F 35.2 °F 30.21 in SSE 4.0 mph 9.0 mph 61% 0.00 in
11:54 48.2 °F 35.0 °F 30.20 in SE 4.0 mph 9.0 mph 60% 0.00 in
11:59 48.5 °F 35.2 °F 30.21 in SSE 4.0 mph 8.0 mph 60% 0.00 in
12:04 49.0 °F 34.4 °F 30.21 in SSE 1.0 mph 10.0 mph 57% 0.00 in
12:09 49.4 °F 34.8 °F 30.21 in South 3.0 mph 6.0 mph 57% 0.00 in
12:14 49.6 °F 34.5 °F 30.21 in South 4.0 mph 7.0 mph 56% 0.00 in
12:19 49.9 °F 35.7 °F 30.21 in South 2.0 mph 9.0 mph 58% 0.00 in
12:24 50.6 °F 35.0 °F 30.21 in SSE 3.0 mph 8.0 mph 55% 0.00 in
12:29 50.6 °F 34.6 °F 30.20 in SSE 4.0 mph 8.0 mph 54% 0.00 in
12:34 50.4 °F 34.8 °F 30.20 in SSE 4.0 mph 8.0 mph 55% 0.00 in
12:39 50.1 °F 34.1 °F 30.19 in SSE 4.0 mph 9.0 mph 54% 0.00 in
12:44 49.9 °F 33.9 °F 30.19 in SSE 5.0 mph 9.0 mph 54% 0.00 in
12:49 49.9 °F 34.8 °F 30.18 in SSE 4.0 mph 9.0 mph 56% 0.00 in
12:54 49.8 °F 34.7 °F 30.18 in SSE 3.0 mph 7.0 mph 56% 0.00 in
12:59 49.8 °F 34.3 °F 30.17 in Calm   7.0 mph 55% 0.00 in
13:04 50.0 °F 34.5 °F 30.17 in SSE 3.0 mph 7.0 mph 55% 0.00 in
13:09 50.0 °F 34.5 °F 30.17 in SSE 3.0 mph 10.0 mph 55% 0.00 in
13:14 50.3 °F 34.3 °F 30.16 in SE 5.0 mph 7.0 mph 54% 0.00 in
13:19 50.5 °F 34.5 °F 30.16 in SE 3.0 mph 7.0 mph 54% 0.00 in
13:24 50.5 °F 34.5 °F 30.16 in SE 3.0 mph 7.0 mph 54% 0.00 in
13:29 50.2 °F 34.2 °F 30.15 in SSE 2.0 mph 7.0 mph 54% 0.00 in
13:34 50.0 °F 34.5 °F 30.14 in East 3.0 mph 6.0 mph 55% 0.00 in
13:39 49.8 °F 34.3 °F 30.14 in SE 2.0 mph 6.0 mph 55% 0.00 in
13:44 49.8 °F 34.3 °F 30.14 in SE 2.0 mph 5.0 mph 55% 0.00 in
13:49 49.9 °F 34.4 °F 30.14 in SE 2.0 mph 5.0 mph 55% 0.00 in
13:54 50.1 °F 34.5 °F 30.13 in SE 2.0 mph 4.0 mph 55% 0.00 in
13:59 50.3 °F 34.3 °F 30.13 in Calm   6.0 mph 54% 0.00 in
14:04 50.6 °F 34.1 °F 30.12 in SSE 3.0 mph 6.0 mph 53% 0.00 in
14:09 50.9 °F 34.4 °F 30.13 in SSE 3.0 mph 6.0 mph 53% 0.00 in
14:14 51.2 °F 33.7 °F 30.12 in SE 4.0 mph 9.0 mph 51% 0.00 in
14:19 51.5 °F 33.5 °F 30.12 in SSE 5.0 mph 10.0 mph 50% 0.00 in
14:24 51.4 °F 33.4 °F 30.12 in SSE 5.0 mph 8.0 mph 50% 0.00 in
14:29 51.4 °F 33.4 °F 30.12 in SSE 6.0 mph 10.0 mph 50% 0.00 in
14:34 51.4 °F 33.4 °F 30.12 in South 6.0 mph 8.0 mph 50% 0.00 in
14:39 51.4 °F 33.4 °F 30.12 in South 4.0 mph 8.0 mph 50% 0.00 in
14:44 51.4 °F 33.4 °F 30.11 in South 4.0 mph 6.0 mph 50% 0.00 in
14:49 51.5 °F 33.0 °F 30.11 in South 4.0 mph 6.0 mph 49% 0.00 in
14:54 51.5 °F 33.0 °F 30.11 in South 3.0 mph 7.0 mph 49% 0.00 in
14:59 51.5 °F 33.5 °F 30.11 in South 4.0 mph 9.0 mph 50% 0.00 in
15:04 51.4 °F 33.4 °F 30.11 in South 2.0 mph 8.0 mph 50% 0.00 in
15:09 51.4 °F 33.4 °F 30.10 in SSE 1.0 mph 7.0 mph 50% 0.00 in
15:14 51.3 °F 33.3 °F 30.10 in SSE 3.0 mph 8.0 mph 50% 0.00 in
15:19 51.3 °F 33.3 °F 30.09 in South 2.0 mph 10.0 mph 50% 0.00 in
15:24 51.2 °F 33.7 °F 30.09 in SSE 2.0 mph 5.0 mph 51% 0.00 in
15:29 51.2 °F 33.2 °F 30.09 in SSW 2.0 mph 9.0 mph 50% 0.00 in
15:34 51.2 °F 33.2 °F 30.09 in SSE 4.0 mph 8.0 mph 50% 0.00 in
15:39 51.2 °F 33.2 °F 30.09 in SSE 4.0 mph 8.0 mph 50% 0.00 in
15:44 51.2 °F 33.7 °F 30.09 in SSE 3.0 mph 8.0 mph 51% 0.00 in
15:49 51.2 °F 33.2 °F 30.09 in SSE 3.0 mph 10.0 mph 50% 0.00 in
15:54 51.2 °F 33.7 °F 30.09 in SSE 3.0 mph 10.0 mph 51% 0.00 in
15:59 51.1 °F 33.6 °F 30.09 in SSE 3.0 mph 8.0 mph 51% 0.00 in
16:04 51.2 °F 33.7 °F 30.08 in SSE 4.0 mph 9.0 mph 51% 0.00 in
16:09 51.2 °F 33.7 °F 30.08 in SSE 5.0 mph 9.0 mph 51% 0.00 in
16:14 51.2 °F 33.7 °F 30.08 in SSE 4.0 mph 9.0 mph 51% 0.00 in
16:19 51.1 °F 33.6 °F 30.08 in Calm   6.0 mph 51% 0.00 in
16:24 51.0 °F 33.5 °F 30.08 in SSE 1.0 mph 6.0 mph 51% 0.00 in
16:29 50.9 °F 33.9 °F 30.08 in SSE 3.0 mph 3.0 mph 52% 0.00 in
16:34 50.9 °F 33.9 °F 30.08 in SSE 3.0 mph 7.0 mph 52% 0.00 in
16:39 50.9 °F 33.9 °F 30.07 in SE 1.0 mph 6.0 mph 52% 0.00 in
16:44 50.9 °F 33.9 °F 30.07 in SE 3.0 mph 6.0 mph 52% 0.00 in
16:49 50.9 °F 33.9 °F 30.07 in SSE 3.0 mph 6.0 mph 52% 0.00 in
16:54 50.9 °F 33.9 °F 30.08 in SSE 3.0 mph 5.0 mph 52% 0.00 in
16:59 50.8 °F 33.8 °F 30.07 in SSE 2.0 mph 5.0 mph 52% 0.00 in
17:04 50.7 °F 34.2 °F 30.08 in SSE 2.0 mph 5.0 mph 53% 0.00 in
17:09 50.7 °F 34.2 °F 30.08 in SSE 3.0 mph 6.0 mph 53% 0.00 in
17:14 50.6 °F 34.1 °F 30.07 in SSE 2.0 mph 6.0 mph 53% 0.00 in
17:19 50.6 °F 34.1 °F 30.07 in SSE 1.0 mph 4.0 mph 53% 0.00 in
17:24 50.5 °F 34.0 °F 30.08 in SSE 2.0 mph 4.0 mph 53% 0.00 in
17:29 50.6 °F 34.1 °F 30.08 in Calm   5.0 mph 53% 0.00 in
17:34 50.6 °F 34.1 °F 30.07 in South 2.0 mph 4.0 mph 53% 0.00 in
17:39 50.6 °F 34.1 °F 30.07 in South 3.0 mph 6.0 mph 53% 0.00 in
17:44 50.7 °F 34.2 °F 30.07 in SSE 5.0 mph 5.0 mph 53% 0.00 in
17:49 50.9 °F 34.4 °F 30.07 in South 3.0 mph 6.0 mph 53% 0.00 in
17:54 51.0 °F 34.0 °F 30.07 in South 3.0 mph 6.0 mph 52% 0.00 in
17:59 51.1 °F 34.1 °F 30.07 in South 4.0 mph 4.0 mph 52% 0.00 in
18:04 51.2 °F 34.2 °F 30.06 in South 3.0 mph 6.0 mph 52% 0.00 in
18:09 51.2 °F 34.2 °F 30.06 in South 3.0 mph 6.0 mph 52% 0.00 in
18:14 51.2 °F 33.7 °F 30.06 in SSW 6.0 mph 7.0 mph 51% 0.00 in
18:19 51.3 °F 33.8 °F 30.06 in SSW 4.0 mph 8.0 mph 51% 0.00 in
18:24 51.2 °F 33.7 °F 30.06 in South 4.0 mph 8.0 mph 51% 0.00 in
18:29 51.3 °F 33.8 °F 30.05 in South 5.0 mph 7.0 mph 51% 0.00 in
18:34 51.4 °F 34.3 °F 30.06 in SSE 4.0 mph 8.0 mph 52% 0.00 in
18:39 51.4 °F 33.9 °F 30.05 in South 4.0 mph 8.0 mph 51% 0.00 in
18:44 51.4 °F 34.3 °F 30.05 in SSW 4.0 mph 7.0 mph 52% 0.00 in
18:49 51.3 °F 33.8 °F 30.05 in South 4.0 mph 9.0 mph 51% 0.00 in
18:59 51.4 °F 33.9 °F 30.04 in South 4.0 mph 8.0 mph 51% 0.00 in
19:04 51.5 °F 34.0 °F 30.04 in South 3.0 mph 7.0 mph 51% 0.00 in
19:09 51.4 °F 33.9 °F 30.04 in South 4.0 mph 7.0 mph 51% 0.00 in
19:14 51.4 °F 33.9 °F 30.04 in SSE 6.0 mph 8.0 mph 51% 0.00 in
19:19 51.3 °F 34.3 °F 30.03 in South 3.0 mph 8.0 mph 52% 0.00 in
19:24 51.3 °F 33.8 °F 30.02 in SSE 3.0 mph 7.0 mph 51% 0.00 in
19:29 51.4 °F 33.9 °F 30.02 in South 2.0 mph 8.0 mph 51% 0.00 in
19:34 51.4 °F 33.9 °F 30.01 in South 6.0 mph 8.0 mph 51% 0.00 in
19:39 51.4 °F 33.9 °F 30.01 in South 5.0 mph 9.0 mph 51% 0.00 in
19:44 51.4 °F 33.9 °F 30.01 in SSE 6.0 mph 8.0 mph 51% 0.00 in
19:49 51.5 °F 34.0 °F 30.01 in SSE 5.0 mph 9.0 mph 51% 0.00 in
19:54 51.6 °F 33.6 °F 30.01 in South 6.0 mph 11.0 mph 50% 0.00 in
19:59 51.6 °F 34.0 °F 30.01 in South 5.0 mph 11.0 mph 51% 0.00 in
20:04 51.5 °F 34.0 °F 30.01 in SSE 8.0 mph 9.0 mph 51% 0.00 in
20:09 51.5 °F 34.0 °F 30.00 in South 7.0 mph 11.0 mph 51% 0.00 in
20:14 51.5 °F 34.0 °F 29.99 in SSW 7.0 mph 9.0 mph 51% 0.00 in
20:19 51.5 °F 34.0 °F 29.99 in SSE 5.0 mph 12.0 mph 51% 0.00 in
20:24 51.5 °F 34.0 °F 29.99 in SSE 6.0 mph 12.0 mph 51% 0.00 in
20:29 51.5 °F 34.0 °F 29.99 in South 6.0 mph 15.0 mph 51% 0.00 in
20:34 51.5 °F 34.0 °F 29.98 in South 6.0 mph 15.0 mph 51% 0.00 in
20:39 51.5 °F 34.0 °F 29.98 in SSE 8.0 mph 12.0 mph 51% 0.00 in
20:44 51.5 °F 34.0 °F 29.98 in South 11.0 mph 13.0 mph 51% 0.00 in
20:49 51.6 °F 34.0 °F 29.97 in SSE 7.0 mph 13.0 mph 51% 0.00 in
20:54 51.5 °F 34.0 °F 29.97 in SSE 6.0 mph 13.0 mph 51% 0.00 in
20:59 51.5 °F 34.4 °F 29.97 in SSE 5.0 mph 10.0 mph 52% 0.00 in
21:09 51.3 °F 34.3 °F 29.97 in South 5.0 mph 10.0 mph 52% 0.00 in
21:14 51.2 °F 34.2 °F 29.96 in South 3.0 mph 7.0 mph 52% 0.00 in
21:19 51.2 °F 34.2 °F 29.96 in SSE 4.0 mph 9.0 mph 52% 0.00 in
21:24 51.2 °F 34.2 °F 29.96 in SSE 4.0 mph 9.0 mph 52% 0.00 in
21:29 51.2 °F 34.2 °F 29.95 in SSE 5.0 mph 10.0 mph 52% 0.00 in
21:34 51.3 °F 34.3 °F 29.95 in SSE 4.0 mph 11.0 mph 52% 0.00 in
21:39 51.3 °F 34.3 °F 29.95 in SSE 3.0 mph 9.0 mph 52% 0.00 in
21:44 51.3 °F 34.3 °F 29.94 in SE 9.0 mph 11.0 mph 52% 0.00 in
21:49 51.5 °F 34.4 °F 29.94 in South 9.0 mph 15.0 mph 52% 0.00 in
21:54 51.5 °F 34.4 °F 29.94 in South 7.0 mph 15.0 mph 52% 0.00 in
21:59 51.5 °F 34.4 °F 29.93 in South 6.0 mph 14.0 mph 52% 0.00 in
22:04 51.4 °F 34.3 °F 29.93 in South 6.0 mph 13.0 mph 52% 0.00 in
22:09 51.4 °F 34.3 °F 29.93 in South 8.0 mph 14.0 mph 52% 0.00 in
22:14 51.5 °F 34.4 °F 29.93 in SSE 5.0 mph 13.0 mph 52% 0.00 in
22:19 51.4 °F 34.3 °F 29.93 in SW 3.0 mph 10.0 mph 52% 0.00 in
22:24 51.5 °F 34.4 °F 29.93 in South 6.0 mph 13.0 mph 52% 0.00 in
22:29 51.5 °F 34.4 °F 29.94 in South 6.0 mph 13.0 mph 52% 0.00 in
22:34 51.5 °F 34.4 °F 29.93 in SSE 6.0 mph 11.0 mph 52% 0.00 in
22:39 51.7 °F 34.1 °F 29.93 in South 4.0 mph 10.0 mph 51% 0.00 in
22:44 51.7 °F 34.1 °F 29.93 in South 5.0 mph 12.0 mph 51% 0.00 in
22:49 51.9 °F 34.3 °F 29.93 in SE 9.0 mph 11.0 mph 51% 0.00 in
22:54 52.0 °F 34.4 °F 29.93 in South 6.0 mph 11.0 mph 51% 0.00 in
22:59 51.9 °F 34.3 °F 29.93 in South 5.0 mph 10.0 mph 51% 0.00 in
23:04 51.6 °F 34.0 °F 29.94 in South 4.0 mph 9.0 mph 51% 0.00 in
23:14 51.8 °F 34.2 °F 29.94 in SSW 3.0 mph 13.0 mph 51% 0.00 in
23:19 52.0 °F 34.4 °F 29.94 in SSE 4.0 mph 10.0 mph 51% 0.00 in
23:24 52.1 °F 34.5 °F 29.93 in South 7.0 mph 17.0 mph 51% 0.00 in
23:29 52.3 °F 34.2 °F 29.93 in South 4.0 mph 17.0 mph 50% 0.00 in
23:34 52.3 °F 34.2 °F 29.93 in SSW 7.0 mph 14.0 mph 50% 0.00 in
23:39 52.5 °F 34.4 °F 29.92 in SSE 4.0 mph 15.0 mph 50% 0.00 in
23:44 52.5 °F 34.4 °F 29.92 in South 8.0 mph 15.0 mph 50% 0.00 in
23:49 52.5 °F 34.4 °F 29.92 in South 8.0 mph 15.0 mph 50% 0.00 in
23:54 52.5 °F 34.4 °F 29.92 in South 8.0 mph 15.0 mph 50% 0.00 in
23:59 52.5 °F 34.4 °F 29.91 in South 6.0 mph 12.0 mph 50% 0.00 in
Buffalo, New York, USA
Compliments of Weather Underground - 2.5 mb